createdAt,value
2022-08-26T13:07:20.411Z,40.92
2022-08-26T13:09:47.851Z,40.84
2022-08-26T13:12:37.493Z,41.12
2022-08-26T13:15:06.367Z,41.41
2022-08-26T13:17:36.081Z,41.89
2022-08-26T13:20:04.669Z,41.98
2022-08-26T13:22:32.190Z,41.66
2022-08-26T13:24:59.609Z,42.04
2022-08-26T13:27:27.779Z,41.90
2022-08-26T13:29:57.353Z,41.24
2022-08-26T13:32:25.167Z,40.39
2022-08-26T13:34:56.360Z,40.26
2022-08-26T13:37:24.342Z,40.67
2022-08-26T13:40:02.169Z,41.14
2022-08-26T13:42:29.681Z,41.67
2022-08-26T13:44:58.322Z,41.60
2022-08-26T13:47:27.641Z,41.83
2022-08-26T13:49:55.613Z,42.20
2022-08-26T13:52:30.300Z,41.53
2022-08-26T13:55:00.528Z,41.69
2022-08-26T13:57:30.447Z,41.87
2022-08-26T13:59:59.666Z,41.72
2022-08-26T14:02:28.271Z,41.64
2022-08-26T14:04:56.171Z,41.92
2022-08-26T14:07:23.704Z,41.82
2022-08-26T14:09:51.451Z,41.49
2022-08-26T14:12:18.609Z,42.01
2022-08-26T14:14:45.728Z,42.05
2022-08-26T14:17:18.142Z,42.13
2022-08-26T14:19:47.051Z,42.16
2022-08-26T14:22:16.235Z,41.95
2022-08-26T14:24:44.622Z,41.71
2022-08-26T14:27:12.612Z,41.33
2022-08-26T14:29:40.912Z,41.68
2022-08-26T14:32:21.959Z,41.58
2022-08-26T14:34:49.835Z,41.40
2022-08-26T14:37:18.149Z,41.11
2022-08-26T14:39:46.064Z,40.59
2022-08-26T14:42:16.770Z,40.00
2022-08-26T14:44:46.193Z,40.44
2022-08-26T14:47:13.397Z,39.85
2022-08-26T14:49:40.571Z,38.87
2022-08-26T14:52:07.617Z,38.65
2022-08-26T14:54:34.808Z,38.63
2022-08-26T14:57:05.856Z,38.16
2022-08-26T14:59:36.785Z,38.59
2022-08-26T15:02:05.889Z,38.21
2022-08-26T15:04:33.528Z,38.42
2022-08-26T15:07:01.505Z,38.68
2022-08-26T15:09:30.569Z,38.82
2022-08-26T15:11:57.740Z,39.17
2022-08-26T15:14:27.649Z,40.04
2022-08-26T15:16:58.022Z,39.89
2022-08-26T15:19:27.258Z,39.13
2022-08-26T15:21:55.559Z,39.10
2022-08-26T15:24:25.035Z,38.49
2022-08-26T15:26:53.325Z,38.76
2022-08-26T15:29:20.975Z,38.50
2022-08-26T15:31:49.045Z,38.77
2022-08-26T15:34:17.270Z,39.51
2022-08-26T15:36:46.703Z,38.74
2022-08-26T15:39:15.702Z,38.73
2022-08-26T15:41:42.917Z,38.33
2022-08-26T15:44:12.030Z,38.47
2022-08-26T15:46:39.621Z,38.62
2022-08-26T15:49:07.397Z,38.01
2022-08-26T15:51:45.779Z,38.22
2022-08-26T15:54:14.471Z,38.27
2022-08-26T15:56:43.480Z,37.98
2022-08-26T15:59:11.983Z,37.62
2022-08-26T16:01:39.526Z,37.55
2022-08-26T16:04:07.743Z,37.67
2022-08-26T16:06:37.341Z,37.02
2022-08-26T16:09:05.585Z,37.01
2022-08-26T16:11:34.355Z,37.04
2022-08-26T16:14:01.595Z,37.12
2022-08-26T16:16:28.763Z,37.29
2022-08-26T16:18:55.932Z,36.84
2022-08-26T16:21:25.820Z,36.27
2022-08-26T16:23:52.875Z,36.21
2022-08-26T16:26:25.273Z,35.88
2022-08-26T16:28:52.886Z,36.08
2022-08-26T16:31:20.144Z,36.39
2022-08-26T16:33:47.873Z,36.48
2022-08-26T16:36:16.576Z,36.26
2022-08-26T16:38:50.317Z,35.90
2022-08-26T16:41:17.916Z,35.81
2022-08-26T16:43:45.480Z,35.51
2022-08-26T16:46:17.305Z,35.40
2022-08-26T16:48:45.482Z,34.94
2022-08-26T16:51:14.070Z,34.77
2022-08-26T16:53:41.305Z,34.36
2022-08-26T16:56:13.511Z,34.12
2022-08-26T16:58:41.066Z,34.04
2022-08-26T17:01:08.470Z,33.79
2022-08-26T17:03:35.664Z,33.59
2022-08-26T17:06:03.495Z,33.44
2022-08-26T17:08:30.769Z,33.20
2022-08-26T17:11:00.757Z,32.83
2022-08-26T17:13:35.348Z,32.71
2022-08-26T17:16:05.233Z,32.36
2022-08-26T17:18:33.729Z,32.22
2022-08-26T17:21:04.096Z,32.03
2022-08-26T17:23:32.032Z,31.97
2022-08-26T17:25:59.121Z,31.79
2022-08-26T17:28:26.159Z,31.61
2022-08-26T17:30:54.965Z,31.43
2022-08-26T17:33:24.700Z,31.28
2022-08-26T17:35:53.232Z,31.12
2022-08-26T17:38:21.487Z,30.99
2022-08-26T17:40:52.848Z,30.84
2022-08-26T17:43:20.029Z,30.78
2022-08-26T17:45:47.477Z,30.69
2022-08-26T17:48:14.942Z,30.63
2022-08-26T17:50:43.532Z,30.38
2022-08-26T17:53:18.734Z,30.35
2022-08-26T17:55:50.438Z,30.34
2022-08-26T17:58:20.201Z,30.26
2022-08-26T18:00:52.152Z,30.18
2022-08-26T18:03:19.414Z,30.10
2022-08-26T18:05:51.366Z,30.05
2022-08-26T18:08:19.501Z,29.96
2022-08-26T18:10:47.310Z,29.84
2022-08-26T18:13:15.199Z,29.73
2022-08-26T18:15:44.347Z,29.70
2022-08-26T18:18:13.314Z,29.51
2022-08-26T18:20:42.330Z,29.45
2022-08-26T18:23:10.106Z,29.46
2022-08-26T18:25:44.008Z,29.37
2022-08-26T18:28:11.385Z,29.21
2022-08-26T18:30:38.524Z,29.01
2022-08-26T18:33:05.726Z,28.98
2022-08-26T18:35:32.866Z,28.86
2022-08-26T18:38:10.434Z,28.72
2022-08-26T18:40:40.224Z,28.54
2022-08-26T18:43:07.639Z,28.42
2022-08-26T18:45:35.154Z,28.39
2022-08-26T18:48:03.955Z,28.35
2022-08-26T18:50:32.228Z,28.27
2022-08-26T18:52:59.342Z,28.13
2022-08-26T18:55:26.540Z,27.99
2022-08-26T18:57:53.825Z,27.91
2022-08-26T19:00:21.374Z,27.77
2022-08-26T19:02:52.011Z,27.74
2022-08-26T19:05:19.794Z,27.57
2022-08-26T19:07:47.960Z,27.47
2022-08-26T19:10:15.532Z,27.42
2022-08-26T19:12:42.910Z,27.31
2022-08-26T19:15:11.410Z,27.22
2022-08-26T19:17:38.914Z,27.11
2022-08-26T19:20:06.945Z,27.09
2022-08-26T19:22:34.245Z,26.92
2022-08-26T19:25:01.793Z,26.81
2022-08-26T19:27:30.464Z,26.79
2022-08-26T19:29:58.158Z,26.70
2022-08-26T19:32:25.893Z,26.58
2022-08-26T19:34:54.308Z,26.42
2022-08-26T19:37:21.854Z,26.38
2022-08-26T19:39:49.652Z,26.27
2022-08-26T19:42:17.692Z,26.23
2022-08-26T19:45:03.372Z,25.93
2022-08-26T19:47:30.856Z,25.96
2022-08-26T19:49:58.305Z,25.69
2022-08-26T19:52:29.891Z,25.73
2022-08-26T19:54:58.814Z,25.69
2022-08-26T19:57:26.180Z,25.54
2022-08-26T19:59:54.683Z,25.48
2022-08-26T20:02:22.181Z,25.43
2022-08-26T20:04:49.751Z,25.42
2022-08-26T20:07:18.840Z,25.43
2022-08-26T20:09:48.079Z,25.39
2022-08-26T20:12:16.382Z,25.40
2022-08-26T20:14:44.462Z,25.38
2022-08-26T20:17:12.291Z,25.33
2022-08-26T20:19:58.262Z,25.31
2022-08-26T20:22:26.256Z,25.22
2022-08-26T20:24:53.690Z,25.12
2022-08-26T20:27:27.682Z,25.06
2022-08-26T20:30:07.859Z,24.97
2022-08-26T20:32:35.733Z,24.90
2022-08-26T20:35:04.020Z,24.90
2022-08-26T20:37:31.076Z,24.80
2022-08-26T20:39:59.066Z,24.75
2022-08-26T20:42:26.809Z,24.74
2022-08-26T20:44:54.405Z,24.70
2022-08-26T20:47:22.868Z,24.66
2022-08-26T20:49:52.319Z,24.53
2022-08-26T20:52:20.142Z,24.53
2022-08-26T20:54:47.314Z,24.58
2022-08-26T20:57:14.971Z,24.55
2022-08-26T20:59:43.264Z,24.54
2022-08-26T21:02:10.454Z,24.53
2022-08-26T21:04:37.642Z,24.51
2022-08-26T21:07:04.788Z,24.40
2022-08-26T21:09:33.146Z,24.35
2022-08-26T21:12:00.153Z,24.26
2022-08-26T21:14:27.431Z,24.20
2022-08-26T21:16:54.701Z,24.16
2022-08-26T21:19:22.436Z,24.12
2022-08-26T21:21:50.389Z,24.14
2022-08-26T21:24:18.194Z,24.11
2022-08-26T21:26:46.378Z,24.10
2022-08-26T21:29:14.025Z,24.07
2022-08-26T21:31:46.096Z,24.10
2022-08-26T21:34:19.068Z,24.10
2022-08-26T21:36:47.403Z,23.99
2022-08-26T21:39:15.195Z,23.93
2022-08-26T21:41:44.200Z,23.84
2022-08-26T21:44:13.115Z,23.75
2022-08-26T21:46:41.017Z,23.76
2022-08-26T21:49:11.504Z,23.73
2022-08-26T21:51:43.186Z,23.67
2022-08-26T21:54:11.667Z,23.61
2022-08-26T21:56:45.388Z,23.57
2022-08-26T21:59:14.036Z,23.49
2022-08-26T22:01:41.837Z,23.41
2022-08-26T22:04:10.533Z,23.36
2022-08-26T22:06:44.798Z,23.24
2022-08-26T22:09:13.696Z,23.22
2022-08-26T22:11:41.573Z,23.24
2022-08-26T22:14:09.201Z,23.21
2022-08-26T22:16:36.557Z,23.17
2022-08-26T22:19:03.767Z,23.04
2022-08-26T22:21:30.875Z,23.06
2022-08-26T22:23:58.920Z,23.06
2022-08-26T22:26:31.801Z,23.07
2022-08-26T22:29:00.363Z,23.06
2022-08-26T22:31:38.385Z,23.07
2022-08-26T22:34:11.488Z,23.07
2022-08-26T22:36:44.173Z,23.03
2022-08-26T22:39:15.048Z,23.00
2022-08-26T22:41:43.973Z,22.98
2022-08-26T22:44:12.253Z,22.96
2022-08-26T22:46:41.385Z,22.98
2022-08-26T22:49:10.552Z,22.98
2022-08-26T22:51:38.095Z,22.96
2022-08-26T22:54:06.514Z,22.96
2022-08-26T22:56:34.205Z,22.94
2022-08-26T22:59:01.265Z,22.90
2022-08-26T23:01:28.610Z,22.89
2022-08-26T23:03:55.706Z,22.88
2022-08-26T23:06:22.746Z,22.70
2022-08-26T23:08:49.845Z,22.67
2022-08-26T23:11:17.684Z,22.61
2022-08-26T23:13:44.736Z,22.54
2022-08-26T23:16:12.872Z,22.45
2022-08-26T23:18:41.242Z,22.42
2022-08-26T23:21:10.523Z,22.28
2022-08-26T23:23:38.612Z,22.25
2022-08-26T23:26:07.195Z,22.27
2022-08-26T23:28:38.474Z,22.14
2022-08-26T23:31:06.472Z,22.12
2022-08-26T23:33:51.952Z,22.18
2022-08-26T23:36:22.570Z,22.18
2022-08-26T23:38:52.915Z,22.22
2022-08-26T23:41:23.000Z,22.20
2022-08-26T23:43:51.812Z,22.22
2022-08-26T23:46:19.840Z,22.24
2022-08-26T23:48:47.618Z,22.26
2022-08-26T23:51:33.241Z,22.19
2022-08-26T23:54:00.398Z,22.13
2022-08-26T23:56:27.864Z,22.20
2022-08-26T23:58:56.093Z,22.08
